sensor_id;sensor_type;location;lat;lon;timestamp;P1;durP1;ratioP1;P2;durP2;ratioP2
15504;SDS011;7854;52.184;5.942;2023-11-18T00:02:07;25;;;20;;
15504;SDS011;7854;52.184;5.942;2023-11-18T00:04:21;38;;;26;;
15504;SDS011;7854;52.184;5.942;2023-11-18T00:06:35;57;;;29;;
15504;SDS011;7854;52.184;5.942;2023-11-18T00:08:50;31;;;25;;
15504;SDS011;7854;52.184;5.942;2023-11-18T00:11:04;34;;;22;;
15504;SDS011;7854;52.184;5.942;2023-11-18T00:13:17;49;;;27;;
15504;SDS011;7854;52.184;5.942;2023-11-18T00:15:32;23;;;20;;
15504;SDS011;7854;52.184;5.942;2023-11-18T00:17:46;28;;;23;;
15504;SDS011;7854;52.184;5.942;2023-11-18T00:20:01;30;;;22;;
15504;SDS011;7854;52.184;5.942;2023-11-18T00:22:15;48;;;30;;
15504;SDS011;7854;52.184;5.942;2023-11-18T00:24:29;39;;;23;;
15504;SDS011;7854;52.184;5.942;2023-11-18T00:26:43;56;;;31;;
15504;SDS011;7854;52.184;5.942;2023-11-18T00:28:58;34;;;24;;
15504;SDS011;7854;52.184;5.942;2023-11-18T00:31:12;33;;;24;;
15504;SDS011;7854;52.184;5.942;2023-11-18T00:33:27;32;;;22;;
15504;SDS011;7854;52.184;5.942;2023-11-18T00:35:41;25;;;21;;
15504;SDS011;7854;52.184;5.942;2023-11-18T00:37:56;32;;;20;;
15504;SDS011;7854;52.184;5.942;2023-11-18T00:40:10;39;;;23;;
15504;SDS011;7854;52.184;5.942;2023-11-18T00:42:24;24;;;20;;
15504;SDS011;7854;52.184;5.942;2023-11-18T00:44:39;38;;;24;;
15504;SDS011;7854;52.184;5.942;2023-11-18T00:46:53;48;;;29;;
15504;SDS011;7854;52.184;5.942;2023-11-18T00:49:08;24;;;19;;
15504;SDS011;7854;52.184;5.942;2023-11-18T00:51:22;25;;;20;;
15504;SDS011;7854;52.184;5.942;2023-11-18T00:53:36;31;;;20;;
15504;SDS011;7854;52.184;5.942;2023-11-18T00:55:51;24;;;21;;
15504;SDS011;7854;52.184;5.942;2023-11-18T00:58:05;37;;;25;;
15504;SDS011;7854;52.184;5.942;2023-11-18T01:00:20;42;;;25;;
15504;SDS011;7854;52.184;5.942;2023-11-18T01:02:35;25;;;22;;
15504;SDS011;7854;52.184;5.942;2023-11-18T01:04:49;24;;;20;;
15504;SDS011;7854;52.184;5.942;2023-11-18T01:07:03;32;;;23;;
15504;SDS011;7854;52.184;5.942;2023-11-18T01:09:17;26;;;21;;
15504;SDS011;7854;52.184;5.942;2023-11-18T01:11:32;22;;;18;;
15504;SDS011;7854;52.184;5.942;2023-11-18T01:13:47;26;;;21;;
15504;SDS011;7854;52.184;5.942;2023-11-18T01:16:01;47;;;28;;
15504;SDS011;7854;52.184;5.942;2023-11-18T01:18:16;33;;;20;;
15504;SDS011;7854;52.184;5.942;2023-11-18T01:20:30;30;;;22;;
15504;SDS011;7854;52.184;5.942;2023-11-18T01:22:45;29;;;21;;
15504;SDS011;7854;52.184;5.942;2023-11-18T01:24:59;51;;;28;;
15504;SDS011;7854;52.184;5.942;2023-11-18T01:27:13;27;;;22;;
15504;SDS011;7854;52.184;5.942;2023-11-18T01:29:29;32;;;23;;
15504;SDS011;7854;52.184;5.942;2023-11-18T01:31:42;50;;;26;;
15504;SDS011;7854;52.184;5.942;2023-11-18T01:33:57;29;;;18;;
15504;SDS011;7854;52.184;5.942;2023-11-18T01:36:11;54;;;26;;
15504;SDS011;7854;52.184;5.942;2023-11-18T01:38:25;23;;;20;;
15504;SDS011;7854;52.184;5.942;2023-11-18T01:40:40;44;;;24;;
15504;SDS011;7854;52.184;5.942;2023-11-18T01:42:55;32;;;22;;
15504;SDS011;7854;52.184;5.942;2023-11-18T01:45:09;25;;;20;;
15504;SDS011;7854;52.184;5.942;2023-11-18T01:47:25;19;;;17;;
15504;SDS011;7854;52.184;5.942;2023-11-18T01:49:38;24;;;21;;
15504;SDS011;7854;52.184;5.942;2023-11-18T01:51:52;25;;;19;;
15504;SDS011;7854;52.184;5.942;2023-11-18T01:54:07;22;;;20;;
15504;SDS011;7854;52.184;5.942;2023-11-18T01:56:21;56;;;29;;
15504;SDS011;7854;52.184;5.942;2023-11-18T01:58:35;47;;;29;;
15504;SDS011;7854;52.184;5.942;2023-11-18T02:00:50;30;;;23;;
15504;SDS011;7854;52.184;5.942;2023-11-18T02:03:04;92;;;36;;
15504;SDS011;7854;52.184;5.942;2023-11-18T02:05:19;48;;;25;;
15504;SDS011;7854;52.184;5.942;2023-11-18T02:07:34;19;;;17;;
15504;SDS011;7854;52.184;5.942;2023-11-18T02:09:48;22;;;20;;
15504;SDS011;7854;52.184;5.942;2023-11-18T02:12:05;59;;;27;;
15504;SDS011;7854;52.184;5.942;2023-11-18T02:14:17;56;;;29;;
15504;SDS011;7854;52.184;5.942;2023-11-18T02:16:31;36;;;22;;
15504;SDS011;7854;52.184;5.942;2023-11-18T02:18:45;68;;;29;;
15504;SDS011;7854;52.184;5.942;2023-11-18T02:21:00;32;;;22;;
15504;SDS011;7854;52.184;5.942;2023-11-18T02:23:14;41;;;26;;
15504;SDS011;7854;52.184;5.942;2023-11-18T02:25:29;35;;;24;;
15504;SDS011;7854;52.184;5.942;2023-11-18T02:27:43;50;;;27;;
15504;SDS011;7854;52.184;5.942;2023-11-18T02:29:58;26;;;20;;
15504;SDS011;7854;52.184;5.942;2023-11-18T02:32:13;41;;;24;;
15504;SDS011;7854;52.184;5.942;2023-11-18T02:34:27;58;;;28;;
15504;SDS011;7854;52.184;5.942;2023-11-18T02:36:42;40;;;23;;
15504;SDS011;7854;52.184;5.942;2023-11-18T02:38:56;20;;;18;;
15504;SDS011;7854;52.184;5.942;2023-11-18T02:43:24;19;;;16;;
15504;SDS011;7854;52.184;5.942;2023-11-18T02:45:39;28;;;20;;
15504;SDS011;7854;52.184;5.942;2023-11-18T02:47:52;57;;;26;;
15504;SDS011;7854;52.184;5.942;2023-11-18T02:50:07;22;;;18;;
15504;SDS011;7854;52.184;5.942;2023-11-18T02:52:21;35;;;22;;
15504;SDS011;7854;52.184;5.942;2023-11-18T02:54:35;53;;;25;;
15504;SDS011;7854;52.184;5.942;2023-11-18T02:56:50;20;;;17;;
15504;SDS011;7854;52.184;5.942;2023-11-18T02:59:04;57;;;20;;
15504;SDS011;7854;52.184;5.942;2023-11-18T03:01:19;51;;;26;;
15504;SDS011;7854;52.184;5.942;2023-11-18T03:03:33;19;;;17;;
15504;SDS011;7854;52.184;5.942;2023-11-18T03:05:48;42;;;25;;
15504;SDS011;7854;52.184;5.942;2023-11-18T03:08:02;35;;;20;;
15504;SDS011;7854;52.184;5.942;2023-11-18T03:10:17;24;;;21;;
15504;SDS011;7854;52.184;5.942;2023-11-18T03:14:46;30;;;23;;
15504;SDS011;7854;52.184;5.942;2023-11-18T03:17:00;31;;;21;;
15504;SDS011;7854;52.184;5.942;2023-11-18T03:19:14;23;;;19;;
15504;SDS011;7854;52.184;5.942;2023-11-18T03:21:29;23;;;19;;
15504;SDS011;7854;52.184;5.942;2023-11-18T03:23:44;34;;;24;;
15504;SDS011;7854;52.184;5.942;2023-11-18T03:25:58;23;;;19;;
15504;SDS011;7854;52.184;5.942;2023-11-18T03:28:12;32;;;22;;
15504;SDS011;7854;52.184;5.942;2023-11-18T03:30:26;23;;;20;;
15504;SDS011;7854;52.184;5.942;2023-11-18T03:32:41;21;;;19;;
15504;SDS011;7854;52.184;5.942;2023-11-18T03:34:56;39;;;24;;
15504;SDS011;7854;52.184;5.942;2023-11-18T03:37:10;41;;;24;;
15504;SDS011;7854;52.184;5.942;2023-11-18T03:39:25;39;;;23;;
15504;SDS011;7854;52.184;5.942;2023-11-18T03:41:39;34;;;22;;
15504;SDS011;7854;52.184;5.942;2023-11-18T03:43:54;36;;;22;;
15504;SDS011;7854;52.184;5.942;2023-11-18T03:46:08;24;;;18;;
15504;SDS011;7854;52.184;5.942;2023-11-18T03:48:22;26;;;20;;
15504;SDS011;7854;52.184;5.942;2023-11-18T03:50:37;36;;;22;;
15504;SDS011;7854;52.184;5.942;2023-11-18T03:52:51;23;;;18;;
15504;SDS011;7854;52.184;5.942;2023-11-18T03:55:06;31;;;23;;
15504;SDS011;7854;52.184;5.942;2023-11-18T03:57:20;23;;;18;;
15504;SDS011;7854;52.184;5.942;2023-11-18T03:59:34;30;;;21;;
15504;SDS011;7854;52.184;5.942;2023-11-18T04:01:49;23;;;20;;
15504;SDS011;7854;52.184;5.942;2023-11-18T04:04:04;73;;;32;;
15504;SDS011;7854;52.184;5.942;2023-11-18T04:06:18;29;;;22;;
15504;SDS011;7854;52.184;5.942;2023-11-18T04:08:33;30;;;20;;
15504;SDS011;7854;52.184;5.942;2023-11-18T04:10:47;43;;;27;;
15504;SDS011;7854;52.184;5.942;2023-11-18T04:13:01;86;;;29;;
15504;SDS011;7854;52.184;5.942;2023-11-18T04:15:16;21;;;19;;
15504;SDS011;7854;52.184;5.942;2023-11-18T04:17:30;40;;;24;;
15504;SDS011;7854;52.184;5.942;2023-11-18T04:19:45;22;;;20;;
15504;SDS011;7854;52.184;5.942;2023-11-18T04:21:59;30;;;21;;
15504;SDS011;7854;52.184;5.942;2023-11-18T04:24:14;76;;;32;;
15504;SDS011;7854;52.184;5.942;2023-11-18T04:26:28;23;;;20;;
15504;SDS011;7854;52.184;5.942;2023-11-18T04:28:42;66;;;29;;
15504;SDS011;7854;52.184;5.942;2023-11-18T04:30:57;26;;;20;;
15504;SDS011;7854;52.184;5.942;2023-11-18T04:33:11;104;;;35;;
15504;SDS011;7854;52.184;5.942;2023-11-18T04:35:25;40;;;23;;
15504;SDS011;7854;52.184;5.942;2023-11-18T04:37:40;55;;;25;;
15504;SDS011;7854;52.184;5.942;2023-11-18T04:39:55;30;;;21;;
15504;SDS011;7854;52.184;5.942;2023-11-18T04:42:09;26;;;20;;
15504;SDS011;7854;52.184;5.942;2023-11-18T04:44:23;30;;;22;;
15504;SDS011;7854;52.184;5.942;2023-11-18T04:46:38;36;;;22;;
15504;SDS011;7854;52.184;5.942;2023-11-18T04:48:52;62;;;25;;
15504;SDS011;7854;52.184;5.942;2023-11-18T04:51:07;31;;;20;;
15504;SDS011;7854;52.184;5.942;2023-11-18T04:53:21;33;;;22;;
15504;SDS011;7854;52.184;5.942;2023-11-18T04:55:35;30;;;20;;
15504;SDS011;7854;52.184;5.942;2023-11-18T04:57:50;27;;;20;;
15504;SDS011;7854;52.184;5.942;2023-11-18T05:00:05;27;;;19;;
15504;SDS011;7854;52.184;5.942;2023-11-18T05:02:19;28;;;20;;
15504;SDS011;7854;52.184;5.942;2023-11-18T05:04:33;37;;;23;;
15504;SDS011;7854;52.184;5.942;2023-11-18T05:06:48;28;;;21;;
15504;SDS011;7854;52.184;5.942;2023-11-18T05:09:02;59;;;29;;
15504;SDS011;7854;52.184;5.942;2023-11-18T05:11:16;35;;;20;;
15504;SDS011;7854;52.184;5.942;2023-11-18T05:13:30;34;;;22;;
15504;SDS011;7854;52.184;5.942;2023-11-18T05:15:45;47;;;25;;
15504;SDS011;7854;52.184;5.942;2023-11-18T05:17:59;38;;;19;;
15504;SDS011;7854;52.184;5.942;2023-11-18T05:20:14;54;;;27;;
15504;SDS011;7854;52.184;5.942;2023-11-18T05:22:28;26;;;20;;
15504;SDS011;7854;52.184;5.942;2023-11-18T05:24:43;32;;;22;;
15504;SDS011;7854;52.184;5.942;2023-11-18T05:27:00;50;;;28;;
15504;SDS011;7854;52.184;5.942;2023-11-18T05:29:11;35;;;19;;
15504;SDS011;7854;52.184;5.942;2023-11-18T05:31:26;21;;;19;;
15504;SDS011;7854;52.184;5.942;2023-11-18T05:33:40;32;;;21;;
15504;SDS011;7854;52.184;5.942;2023-11-18T05:35:55;27;;;21;;
15504;SDS011;7854;52.184;5.942;2023-11-18T05:38:09;33;;;21;;
15504;SDS011;7854;52.184;5.942;2023-11-18T05:40:23;22;;;19;;
15504;SDS011;7854;52.184;5.942;2023-11-18T05:42:38;20;;;14;;
15504;SDS011;7854;52.184;5.942;2023-11-18T05:44:53;19;;;13;;
15504;SDS011;7854;52.184;5.942;2023-11-18T05:47:07;15;;;13;;
15504;SDS011;7854;52.184;5.942;2023-11-18T05:49:21;22;;;14;;
15504;SDS011;7854;52.184;5.942;2023-11-18T05:51:36;22;;;14;;
15504;SDS011;7854;52.184;5.942;2023-11-18T05:53:50;107;;;23;;
15504;SDS011;7854;52.184;5.942;2023-11-18T05:56:05;28;;;21;;
15504;SDS011;7854;52.184;5.942;2023-11-18T05:58:19;57;;;30;;
15504;SDS011;7854;52.184;5.942;2023-11-18T06:00:33;27;;;23;;
15504;SDS011;7854;52.184;5.942;2023-11-18T06:02:48;26;;;21;;
15504;SDS011;7854;52.184;5.942;2023-11-18T06:05:02;75;;;33;;
15504;SDS011;7854;52.184;5.942;2023-11-18T06:07:17;105;;;40;;
15504;SDS011;7854;52.184;5.942;2023-11-18T06:09:31;57;;;32;;
15504;SDS011;7854;52.184;5.942;2023-11-18T06:11:46;67;;;31;;
15504;SDS011;7854;52.184;5.942;2023-11-18T06:14:00;72;;;32;;
15504;SDS011;7854;52.184;5.942;2023-11-18T06:16:15;31;;;23;;
15504;SDS011;7854;52.184;5.942;2023-11-18T06:18:29;41;;;28;;
15504;SDS011;7854;52.184;5.942;2023-11-18T06:20:43;48;;;28;;
15504;SDS011;7854;52.184;5.942;2023-11-18T06:22:58;38;;;27;;
15504;SDS011;7854;52.184;5.942;2023-11-18T06:25:12;42;;;27;;
15504;SDS011;7854;52.184;5.942;2023-11-18T06:27:27;75;;;34;;
15504;SDS011;7854;52.184;5.942;2023-11-18T06:29:41;40;;;24;;
15504;SDS011;7854;52.184;5.942;2023-11-18T06:31:56;27;;;23;;
15504;SDS011;7854;52.184;5.942;2023-11-18T06:34:10;38;;;22;;
15504;SDS011;7854;52.184;5.942;2023-11-18T06:36:25;40;;;26;;
15504;SDS011;7854;52.184;5.942;2023-11-18T06:38:39;55;;;25;;
15504;SDS011;7854;52.184;5.942;2023-11-18T06:40:54;42;;;30;;
15504;SDS011;7854;52.184;5.942;2023-11-18T06:43:08;56;;;24;;
15504;SDS011;7854;52.184;5.942;2023-11-18T06:45:22;44;;;30;;
15504;SDS011;7854;52.184;5.942;2023-11-18T06:47:37;50;;;30;;
15504;SDS011;7854;52.184;5.942;2023-11-18T06:49:51;62;;;33;;
15504;SDS011;7854;52.184;5.942;2023-11-18T06:52:06;57;;;34;;
15504;SDS011;7854;52.184;5.942;2023-11-18T06:54:20;56;;;32;;
15504;SDS011;7854;52.184;5.942;2023-11-18T06:56:35;68;;;39;;
15504;SDS011;7854;52.184;5.942;2023-11-18T06:58:49;96;;;42;;
15504;SDS011;7854;52.184;5.942;2023-11-18T07:01:04;69;;;38;;
15504;SDS011;7854;52.184;5.942;2023-11-18T07:03:18;70;;;38;;
15504;SDS011;7854;52.184;5.942;2023-11-18T07:05:33;60;;;34;;
15504;SDS011;7854;52.184;5.942;2023-11-18T07:07:47;56;;;35;;
15504;SDS011;7854;52.184;5.942;2023-11-18T07:10:01;69;;;37;;
15504;SDS011;7854;52.184;5.942;2023-11-18T07:12:16;87;;;42;;
15504;SDS011;7854;52.184;5.942;2023-11-18T07:14:30;98;;;43;;
15504;SDS011;7854;52.184;5.942;2023-11-18T07:16:45;76;;;43;;
15504;SDS011;7854;52.184;5.942;2023-11-18T07:18:59;67;;;37;;
15504;SDS011;7854;52.184;5.942;2023-11-18T07:21:13;59;;;38;;
15504;SDS011;7854;52.184;5.942;2023-11-18T07:23:28;59;;;38;;
15504;SDS011;7854;52.184;5.942;2023-11-18T07:25:42;66;;;37;;
15504;SDS011;7854;52.184;5.942;2023-11-18T07:27:57;94;;;47;;
15504;SDS011;7854;52.184;5.942;2023-11-18T07:30:12;108;;;50;;
15504;SDS011;7854;52.184;5.942;2023-11-18T07:32:26;76;;;41;;
15504;SDS011;7854;52.184;5.942;2023-11-18T07:34:39;63;;;38;;
15504;SDS011;7854;52.184;5.942;2023-11-18T07:36:53;55;;;36;;
15504;SDS011;7854;52.184;5.942;2023-11-18T07:39:08;82;;;46;;
15504;SDS011;7854;52.184;5.942;2023-11-18T07:41:23;69;;;41;;
15504;SDS011;7854;52.184;5.942;2023-11-18T07:43:37;97;;;46;;
15504;SDS011;7854;52.184;5.942;2023-11-18T07:45:51;95;;;45;;
15504;SDS011;7854;52.184;5.942;2023-11-18T07:48:05;101;;;46;;
15504;SDS011;7854;52.184;5.942;2023-11-18T07:50:20;81;;;42;;
15504;SDS011;7854;52.184;5.942;2023-11-18T07:52:34;68;;;40;;
15504;SDS011;7854;52.184;5.942;2023-11-18T07:54:48;67;;;41;;
15504;SDS011;7854;52.184;5.942;2023-11-18T07:57:03;59;;;37;;
15504;SDS011;7854;52.184;5.942;2023-11-18T07:59:17;61;;;38;;
15504;SDS011;7854;52.184;5.942;2023-11-18T08:01:32;61;;;37;;
15504;SDS011;7854;52.184;5.942;2023-11-18T08:03:46;77;;;40;;
15504;SDS011;7854;52.184;5.942;2023-11-18T08:06:01;60;;;37;;
15504;SDS011;7854;52.184;5.942;2023-11-18T08:08:15;68;;;39;;
15504;SDS011;7854;52.184;5.942;2023-11-18T08:10:29;64;;;38;;
15504;SDS011;7854;52.184;5.942;2023-11-18T08:12:44;58;;;36;;
15504;SDS011;7854;52.184;5.942;2023-11-18T08:14:59;51;;;33;;
15504;SDS011;7854;52.184;5.942;2023-11-18T08:17:12;59;;;35;;
15504;SDS011;7854;52.184;5.942;2023-11-18T08:19:27;53;;;36;;
15504;SDS011;7854;52.184;5.942;2023-11-18T08:21:41;51;;;33;;
15504;SDS011;7854;52.184;5.942;2023-11-18T08:23:56;53;;;34;;
15504;SDS011;7854;52.184;5.942;2023-11-18T08:26:11;60;;;39;;
15504;SDS011;7854;52.184;5.942;2023-11-18T08:28:25;55;;;33;;
15504;SDS011;7854;52.184;5.942;2023-11-18T08:30:39;52;;;35;;
15504;SDS011;7854;52.184;5.942;2023-11-18T08:32:54;65;;;35;;
15504;SDS011;7854;52.184;5.942;2023-11-18T08:35:08;53;;;33;;
15504;SDS011;7854;52.184;5.942;2023-11-18T08:37:23;49;;;32;;
15504;SDS011;7854;52.184;5.942;2023-11-18T08:39:37;46;;;31;;
15504;SDS011;7854;52.184;5.942;2023-11-18T08:41:51;48;;;31;;
15504;SDS011;7854;52.184;5.942;2023-11-18T08:44:06;42;;;28;;
15504;SDS011;7854;52.184;5.942;2023-11-18T08:46:21;50;;;28;;
15504;SDS011;7854;52.184;5.942;2023-11-18T08:48:35;71;;;30;;
15504;SDS011;7854;52.184;5.942;2023-11-18T08:50:49;45;;;30;;
15504;SDS011;7854;52.184;5.942;2023-11-18T08:53:04;46;;;29;;
15504;SDS011;7854;52.184;5.942;2023-11-18T08:55:19;33;;;26;;
15504;SDS011;7854;52.184;5.942;2023-11-18T08:57:33;38;;;28;;
15504;SDS011;7854;52.184;5.942;2023-11-18T08:59:47;31;;;24;;
15504;SDS011;7854;52.184;5.942;2023-11-18T09:04:17;39;;;28;;
15504;SDS011;7854;52.184;5.942;2023-11-18T09:06:31;53;;;27;;
15504;SDS011;7854;52.184;5.942;2023-11-18T09:08:46;47;;;28;;
15504;SDS011;7854;52.184;5.942;2023-11-18T09:11:00;50;;;31;;
15504;SDS011;7854;52.184;5.942;2023-11-18T09:13:14;38;;;26;;
15504;SDS011;7854;52.184;5.942;2023-11-18T09:15:28;33;;;24;;
15504;SDS011;7854;52.184;5.942;2023-11-18T09:17:42;36;;;24;;
15504;SDS011;7854;52.184;5.942;2023-11-18T09:19:57;35;;;24;;
15504;SDS011;7854;52.184;5.942;2023-11-18T09:22:12;44;;;25;;
15504;SDS011;7854;52.184;5.942;2023-11-18T09:24:26;34;;;23;;
15504;SDS011;7854;52.184;5.942;2023-11-18T09:26:41;37;;;24;;
15504;SDS011;7854;52.184;5.942;2023-11-18T09:28:55;30;;;24;;
15504;SDS011;7854;52.184;5.942;2023-11-18T09:31:09;36;;;24;;
15504;SDS011;7854;52.184;5.942;2023-11-18T09:33:25;41;;;23;;
15504;SDS011;7854;52.184;5.942;2023-11-18T09:35:38;36;;;24;;
15504;SDS011;7854;52.184;5.942;2023-11-18T09:37:52;43;;;22;;
15504;SDS011;7854;52.184;5.942;2023-11-18T09:40:06;36;;;23;;
15504;SDS011;7854;52.184;5.942;2023-11-18T09:42:21;44;;;22;;
15504;SDS011;7854;52.184;5.942;2023-11-18T09:44:36;55;;;26;;
15504;SDS011;7854;52.184;5.942;2023-11-18T09:46:50;40;;;22;;
15504;SDS011;7854;52.184;5.942;2023-11-18T09:49:06;43;;;25;;
15504;SDS011;7854;52.184;5.942;2023-11-18T09:51:19;42;;;22;;
15504;SDS011;7854;52.184;5.942;2023-11-18T09:53:33;39;;;20;;
15504;SDS011;7854;52.184;5.942;2023-11-18T09:55:49;41;;;23;;
15504;SDS011;7854;52.184;5.942;2023-11-18T09:58:03;32;;;20;;
15504;SDS011;7854;52.184;5.942;2023-11-18T10:00:16;29;;;20;;
15504;SDS011;7854;52.184;5.942;2023-11-18T10:02:31;31;;;19;;
15504;SDS011;7854;52.184;5.942;2023-11-18T10:07:00;30;;;19;;
15504;SDS011;7854;52.184;5.942;2023-11-18T10:09:14;36;;;20;;
15504;SDS011;7854;52.184;5.942;2023-11-18T10:11:29;31;;;19;;
15504;SDS011;7854;52.184;5.942;2023-11-18T10:13:43;28;;;18;;
15504;SDS011;7854;52.184;5.942;2023-11-18T10:15:57;22;;;18;;
15504;SDS011;7854;52.184;5.942;2023-11-18T10:18:12;35;;;20;;
15504;SDS011;7854;52.184;5.942;2023-11-18T10:20:43;33;;;18;;
15504;SDS011;7854;52.184;5.942;2023-11-18T10:22:41;29;;;20;;
15504;SDS011;7854;52.184;5.942;2023-11-18T10:24:59;28;;;18;;
15504;SDS011;7854;52.184;5.942;2023-11-18T10:27:10;33;;;18;;
15504;SDS011;7854;52.184;5.942;2023-11-18T10:29:24;27;;;17;;
15504;SDS011;7854;52.184;5.942;2023-11-18T10:31:38;41;;;17;;
15504;SDS011;7854;52.184;5.942;2023-11-18T10:33:53;25;;;17;;
15504;SDS011;7854;52.184;5.942;2023-11-18T10:36:16;31;;;17;;
15504;SDS011;7854;52.184;5.942;2023-11-18T10:38:22;28;;;17;;
15504;SDS011;7854;52.184;5.942;2023-11-18T10:40:36;24;;;16;;
15504;SDS011;7854;52.184;5.942;2023-11-18T10:42:50;25;;;14;;
15504;SDS011;7854;52.184;5.942;2023-11-18T10:45:06;25;;;17;;
15504;SDS011;7854;52.184;5.942;2023-11-18T10:47:20;28;;;17;;
15504;SDS011;7854;52.184;5.942;2023-11-18T10:49:34;22;;;14;;
15504;SDS011;7854;52.184;5.942;2023-11-18T10:51:50;31;;;18;;
15504;SDS011;7854;52.184;5.942;2023-11-18T10:54:04;28;;;17;;
15504;SDS011;7854;52.184;5.942;2023-11-18T10:56:18;41;;;18;;
15504;SDS011;7854;52.184;5.942;2023-11-18T10:58:35;41;;;19;;
15504;SDS011;7854;52.184;5.942;2023-11-18T11:00:47;42;;;19;;
15504;SDS011;7854;52.184;5.942;2023-11-18T11:03:02;25;;;15;;
15504;SDS011;7854;52.184;5.942;2023-11-18T11:05:21;33;;;16;;
15504;SDS011;7854;52.184;5.942;2023-11-18T11:07:30;30;;;15;;
15504;SDS011;7854;52.184;5.942;2023-11-18T11:09:44;43;;;18;;
15504;SDS011;7854;52.184;5.942;2023-11-18T11:11:59;31;;;16;;
15504;SDS011;7854;52.184;5.942;2023-11-18T11:14:14;35;;;16;;
15504;SDS011;7854;52.184;5.942;2023-11-18T11:18:42;38;;;18;;
15504;SDS011;7854;52.184;5.942;2023-11-18T11:20:57;43;;;18;;
15504;SDS011;7854;52.184;5.942;2023-11-18T11:23:13;47;;;20;;
15504;SDS011;7854;52.184;5.942;2023-11-18T11:25:28;30;;;15;;
15504;SDS011;7854;52.184;5.942;2023-11-18T11:27:41;28;;;15;;
15504;SDS011;7854;52.184;5.942;2023-11-18T11:29:54;29;;;16;;
15504;SDS011;7854;52.184;5.942;2023-11-18T11:32:11;33;;;15;;
15504;SDS011;7854;52.184;5.942;2023-11-18T11:34:22;30;;;18;;
15504;SDS011;7854;52.184;5.942;2023-11-18T11:36:37;66;;;20;;
15504;SDS011;7854;52.184;5.942;2023-11-18T11:38:51;37;;;19;;
15504;SDS011;7854;52.184;5.942;2023-11-18T11:41:05;38;;;18;;
15504;SDS011;7854;52.184;5.942;2023-11-18T11:43:19;41;;;18;;
15504;SDS011;7854;52.184;5.942;2023-11-18T11:45:34;31;;;16;;
15504;SDS011;7854;52.184;5.942;2023-11-18T11:47:49;22;;;15;;
15504;SDS011;7854;52.184;5.942;2023-11-18T11:50:06;26;;;16;;
15504;SDS011;7854;52.184;5.942;2023-11-18T11:52:18;26;;;16;;
15504;SDS011;7854;52.184;5.942;2023-11-18T11:54:34;25;;;15;;
15504;SDS011;7854;52.184;5.942;2023-11-18T11:56:47;34;;;17;;
15504;SDS011;7854;52.184;5.942;2023-11-18T11:59:01;36;;;17;;
15504;SDS011;7854;52.184;5.942;2023-11-18T12:01:15;29;;;14;;
15504;SDS011;7854;52.184;5.942;2023-11-18T12:03:29;23;;;15;;
15504;SDS011;7854;52.184;5.942;2023-11-18T12:05:44;19;;;13;;
15504;SDS011;7854;52.184;5.942;2023-11-18T12:07:59;18;;;13;;
15504;SDS011;7854;52.184;5.942;2023-11-18T12:10:13;36;;;15;;
15504;SDS011;7854;52.184;5.942;2023-11-18T12:12:28;32;;;16;;
15504;SDS011;7854;52.184;5.942;2023-11-18T12:14:50;18;;;14;;
15504;SDS011;7854;52.184;5.942;2023-11-18T12:16:58;19;;;12;;
15504;SDS011;7854;52.184;5.942;2023-11-18T12:19:42;17;;;13;;
15504;SDS011;7854;52.184;5.942;2023-11-18T12:21:53;18;;;12;;
15504;SDS011;7854;52.184;5.942;2023-11-18T12:23:40;27;;;16;;
15504;SDS011;7854;52.184;5.942;2023-11-18T12:25:54;16;;;13;;
15504;SDS011;7854;52.184;5.942;2023-11-18T12:28:09;14;;;12;;
15504;SDS011;7854;52.184;5.942;2023-11-18T12:30:38;16;;;13;;
15504;SDS011;7854;52.184;5.942;2023-11-18T12:33:09;19;;;12;;
15504;SDS011;7854;52.184;5.942;2023-11-18T12:34:52;14;;;12;;
15504;SDS011;7854;52.184;5.942;2023-11-18T12:37:12;20;;;10;;
15504;SDS011;7854;52.184;5.942;2023-11-18T12:39:27;14;;;12;;
15504;SDS011;7854;52.184;5.942;2023-11-18T12:41:36;16;;;13;;
15504;SDS011;7854;52.184;5.942;2023-11-18T12:43:53;15;;;11;;
15504;SDS011;7854;52.184;5.942;2023-11-18T12:47:09;13;;;10;;
15504;SDS011;7854;52.184;5.942;2023-11-18T12:48:20;11;;;9;;
15504;SDS011;7854;52.184;5.942;2023-11-18T12:50:33;18;;;9;;
15504;SDS011;7854;52.184;5.942;2023-11-18T12:52:47;21;;;11;;
15504;SDS011;7854;52.184;5.942;2023-11-18T12:55:02;12;;;10;;
15504;SDS011;7854;52.184;5.942;2023-11-18T12:57:16;11;;;9;;
15504;SDS011;7854;52.184;5.942;2023-11-18T12:59:31;9;;;8;;
15504;SDS011;7854;52.184;5.942;2023-11-18T13:01:46;16;;;8;;
15504;SDS011;7854;52.184;5.942;2023-11-18T13:03:59;10;;;9;;
15504;SDS011;7854;52.184;5.942;2023-11-18T13:06:15;9;;;8;;
15504;SDS011;7854;52.184;5.942;2023-11-18T13:08:29;9;;;8;;
15504;SDS011;7854;52.184;5.942;2023-11-18T13:10:43;16;;;9;;
15504;SDS011;7854;52.184;5.942;2023-11-18T13:12:58;10;;;8;;
15504;SDS011;7854;52.184;5.942;2023-11-18T13:15:12;12;;;8;;
15504;SDS011;7854;52.184;5.942;2023-11-18T13:17:26;13;;;8;;
15504;SDS011;7854;52.184;5.942;2023-11-18T13:19:40;6;;;6;;
15504;SDS011;7854;52.184;5.942;2023-11-18T13:21:56;9;;;7;;
15504;SDS011;7854;52.184;5.942;2023-11-18T13:24:09;11;;;6;;
15504;SDS011;7854;52.184;5.942;2023-11-18T13:26:23;11;;;8;;
15504;SDS011;7854;52.184;5.942;2023-11-18T13:28:38;13;;;8;;
15504;SDS011;7854;52.184;5.942;2023-11-18T13:30:52;8;;;7;;
15504;SDS011;7854;52.184;5.942;2023-11-18T13:33:07;6;;;6;;
15504;SDS011;7854;52.184;5.942;2023-11-18T13:35:21;8;;;7;;
15504;SDS011;7854;52.184;5.942;2023-11-18T13:37:35;6;;;6;;
15504;SDS011;7854;52.184;5.942;2023-11-18T13:39:53;10;;;5;;
15504;SDS011;7854;52.184;5.942;2023-11-18T13:42:18;7;;;6;;
15504;SDS011;7854;52.184;5.942;2023-11-18T13:44:34;9;;;6;;
15504;SDS011;7854;52.184;5.942;2023-11-18T13:46:33;6;;;6;;
15504;SDS011;7854;52.184;5.942;2023-11-18T13:48:48;9;;;8;;
15504;SDS011;7854;52.184;5.942;2023-11-18T13:51:02;6;;;5;;
15504;SDS011;7854;52.184;5.942;2023-11-18T13:53:17;6;;;6;;
15504;SDS011;7854;52.184;5.942;2023-11-18T13:55:31;15;;;7;;
15504;SDS011;7854;52.184;5.942;2023-11-18T13:57:46;5;;;4;;
15504;SDS011;7854;52.184;5.942;2023-11-18T14:00:00;4;;;4;;
15504;SDS011;7854;52.184;5.942;2023-11-18T14:02:14;6;;;5;;
15504;SDS011;7854;52.184;5.942;2023-11-18T14:04:29;4;;;4;;
15504;SDS011;7854;52.184;5.942;2023-11-18T14:06:44;3;;;3;;
15504;SDS011;7854;52.184;5.942;2023-11-18T14:08:57;5;;;4;;
15504;SDS011;7854;52.184;5.942;2023-11-18T14:11:12;5;;;5;;
15504;SDS011;7854;52.184;5.942;2023-11-18T14:13:27;5;;;4;;
15504;SDS011;7854;52.184;5.942;2023-11-18T14:15:41;8;;;4;;
15504;SDS011;7854;52.184;5.942;2023-11-18T14:17:56;4;;;3;;
15504;SDS011;7854;52.184;5.942;2023-11-18T14:20:10;4;;;3;;
15504;SDS011;7854;52.184;5.942;2023-11-18T14:22:24;3;;;3;;
15504;SDS011;7854;52.184;5.942;2023-11-18T14:24:38;3;;;3;;
15504;SDS011;7854;52.184;5.942;2023-11-18T14:26:54;3;;;3;;
15504;SDS011;7854;52.184;5.942;2023-11-18T14:29:08;4;;;3;;
15504;SDS011;7854;52.184;5.942;2023-11-18T14:31:22;3;;;2;;
15504;SDS011;7854;52.184;5.942;2023-11-18T14:33:36;2;;;2;;
15504;SDS011;7854;52.184;5.942;2023-11-18T14:38:05;6;;;3;;
15504;SDS011;7854;52.184;5.942;2023-11-18T14:42:34;3;;;3;;
15504;SDS011;7854;52.184;5.942;2023-11-18T14:44:49;3;;;3;;
15504;SDS011;7854;52.184;5.942;2023-11-18T14:47:04;3;;;2;;
15504;SDS011;7854;52.184;5.942;2023-11-18T14:49:18;4;;;3;;
15504;SDS011;7854;52.184;5.942;2023-11-18T14:51:32;2;;;2;;
15504;SDS011;7854;52.184;5.942;2023-11-18T14:53:46;3;;;2;;
15504;SDS011;7854;52.184;5.942;2023-11-18T14:56:01;4;;;4;;